Time,TemperatureF,DewpointF,PressureIn,WindDirection,WindDirectionDegrees,WindSpeedMPH,WindSpeedGustMPH,Humidity,HourlyPrecipIn,Conditions,Clouds,dailyrainin,SoftwareType,DateUTC
2013-09-22 00:02:00,-999.0,-99.9,29.70,WSW,252,2.0,9.0,-999,-99.99,,,-99.99,,2013-09-22 04:02:00,
2013-09-22 00:14:00,66.0,62.0,29.70,WSW,252,2.0,9.0,86,0.00,,,0.00,,2013-09-22 04:14:00,
2013-09-22 00:23:00,66.0,62.0,29.70,North,5,3.0,14.0,86,0.00,,,0.00,,2013-09-22 04:23:00,
2013-09-22 00:44:00,66.0,62.0,29.69,NW,305,0.0,7.0,86,0.00,,,0.00,,2013-09-22 04:44:00,
2013-09-22 00:54:00,66.0,62.0,29.68,WNW,289,3.0,7.0,86,0.00,,,0.00,,2013-09-22 04:54:00,
2013-09-22 01:13:00,66.0,62.0,29.68,West,263,3.0,15.0,86,0.00,,,0.00,,2013-09-22 05:13:00,
2013-09-22 01:23:00,66.0,62.0,29.67,WSW,251,3.0,7.0,88,0.00,,,0.00,,2013-09-22 05:23:00,
2013-09-22 01:43:00,64.0,61.0,29.62,North,355,1.0,7.0,90,0.00,,,0.00,,2013-09-22 05:43:00,
2013-09-22 01:53:00,64.0,62.0,29.65,West,266,1.0,4.0,93,0.00,,,0.00,,2013-09-22 05:53:00,
2013-09-22 02:12:00,64.0,62.0,29.64,North,4,1.0,5.0,94,0.00,,,0.00,,2013-09-22 06:12:00,
2013-09-22 02:22:00,64.0,63.0,29.63,WNW,284,2.0,8.0,95,0.01,,,0.01,,2013-09-22 06:22:00,
2013-09-22 02:52:00,64.0,63.0,29.62,WSW,251,1.0,8.0,95,0.03,,,0.03,,2013-09-22 06:52:00,
2013-09-22 03:12:00,64.0,63.0,29.62,SW,235,1.0,7.0,95,0.04,,,0.05,,2013-09-22 07:12:00,
2013-09-22 03:22:00,64.0,63.0,29.64,West,271,4.0,7.0,95,0.19,,,0.20,,2013-09-22 07:22:00,
2013-09-22 03:42:00,63.0,61.0,29.63,WSW,253,4.0,9.0,94,0.29,,,0.30,,2013-09-22 07:42:00,
2013-09-22 03:52:00,62.0,61.0,29.62,West,260,2.0,7.0,95,0.33,,,0.36,,2013-09-22 07:52:00,
2013-09-22 04:12:00,61.0,60.0,29.62,West,260,2.0,5.0,96,0.37,,,0.42,,2013-09-22 08:12:00,
2013-09-22 04:22:00,60.0,59.0,29.58,WSW,251,0.0,2.0,97,0.26,,,0.47,,2013-09-22 08:22:00,
2013-09-22 04:52:00,60.0,59.0,29.64,NNW,344,2.0,9.0,96,0.13,,,0.49,,2013-09-22 08:52:00,
2013-09-22 05:11:00,59.0,58.0,29.63,WSW,249,0.0,2.0,97,0.08,,,0.50,,2013-09-22 09:11:00,
2013-09-22 05:22:00,59.0,58.0,29.64,WSW,252,3.0,6.0,97,0.05,,,0.52,,2013-09-22 09:22:00,
2013-09-22 05:43:00,59.0,58.0,29.65,WSW,252,4.0,7.0,96,0.05,,,0.54,,2013-09-22 09:43:00,
2013-09-22 05:54:00,58.0,57.0,29.65,WSW,242,3.0,8.0,97,0.06,,,0.55,,2013-09-22 09:54:00,
2013-09-22 06:12:00,58.0,57.0,29.65,West,268,1.0,6.0,97,0.06,,,0.56,,2013-09-22 10:12:00,
2013-09-22 06:23:00,58.0,57.0,29.65,West,277,2.0,5.0,97,0.05,,,0.57,,2013-09-22 10:23:00,
2013-09-22 06:44:00,57.0,56.0,29.65,WSW,252,2.0,8.0,97,0.03,,,0.57,,2013-09-22 10:44:00,
2013-09-22 06:53:00,57.0,56.0,29.65,SW,218,4.0,9.0,97,0.02,,,0.57,,2013-09-22 10:53:00,
2013-09-22 07:12:00,57.0,56.0,29.61,WSW,245,3.0,7.0,97,0.01,,,0.56,,2013-09-22 11:12:00,
2013-09-22 07:22:00,57.0,56.0,29.61,WSW,237,3.0,9.0,96,0.00,,,0.56,,2013-09-22 11:22:00,
2013-09-22 07:42:00,58.0,57.0,29.66,WSW,256,5.0,11.0,96,0.00,,,0.57,,2013-09-22 11:42:00,
2013-09-22 07:52:00,58.0,57.0,29.67,SW,227,7.0,12.0,96,0.00,,,0.57,,2013-09-22 11:52:00,
2013-09-22 08:12:00,58.0,57.0,29.66,SW,220,5.0,12.0,95,0.00,,,0.57,,2013-09-22 12:12:00,
2013-09-22 08:22:00,58.0,57.0,29.66,WSW,249,5.0,12.0,95,0.00,,,0.57,,2013-09-22 12:22:00,
2013-09-22 08:42:00,58.0,57.0,29.66,SW,224,5.0,12.0,95,0.00,,,0.57,,2013-09-22 12:42:00,
2013-09-22 08:52:00,57.0,56.0,29.67,SW,217,4.0,13.0,96,0.01,,,0.58,,2013-09-22 12:52:00,
2013-09-22 09:12:00,57.0,56.0,29.67,WSW,244,5.0,11.0,95,0.01,,,0.58,,2013-09-22 13:12:00,
2013-09-22 09:22:00,58.0,56.0,29.68,West,279,6.0,13.0,94,0.01,,,0.58,,2013-09-22 13:22:00,
2013-09-22 09:42:00,58.0,56.0,29.68,West,275,6.0,13.0,92,0.01,,,0.58,,2013-09-22 13:42:00,
2013-09-22 09:52:00,58.0,56.0,29.68,WNW,285,4.0,10.0,93,0.00,,,0.58,,2013-09-22 13:52:00,
2013-09-22 10:11:00,58.0,55.0,29.68,WNW,289,2.0,11.0,90,0.00,,,0.58,,2013-09-22 14:11:00,
2013-09-22 10:22:00,57.0,53.0,29.65,WNW,286,5.0,11.0,86,0.00,,,0.57,,2013-09-22 14:22:00,
2013-09-22 10:42:00,58.0,53.0,29.69,SW,228,3.0,10.0,84,0.00,,,0.58,,2013-09-22 14:42:00,
2013-09-22 10:52:00,58.0,52.0,29.69,NW,320,3.0,10.0,81,0.00,,,0.58,,2013-09-22 14:52:00,
2013-09-22 11:12:00,58.0,52.0,29.69,NNW,333,5.0,9.0,80,0.00,,,0.58,,2013-09-22 15:12:00,
2013-09-22 11:23:00,58.0,53.0,29.69,WSW,256,3.0,12.0,83,0.00,,,0.58,,2013-09-22 15:23:00,
2013-09-22 11:44:00,59.0,52.0,29.69,NNW,332,5.0,15.0,77,0.00,,,0.58,,2013-09-22 15:44:00,
2013-09-22 11:55:00,60.0,52.0,29.69,NW,324,3.0,11.0,75,0.00,,,0.58,,2013-09-22 15:55:00,
2013-09-22 12:13:00,60.0,51.0,29.69,West,266,4.0,12.0,73,0.00,,,0.58,,2013-09-22 16:13:00,
2013-09-22 12:24:00,60.0,51.0,29.69,NW,310,4.0,8.0,71,0.00,,,0.58,,2013-09-22 16:24:00,
2013-09-22 12:43:00,61.0,50.0,29.69,SW,234,7.0,15.0,68,0.00,,,0.58,,2013-09-22 16:43:00,
2013-09-22 12:54:00,59.0,50.0,29.70,WNW,282,5.0,12.0,73,0.00,,,0.58,,2013-09-22 16:54:00,
2013-09-22 13:12:00,59.0,50.0,29.70,NW,314,4.0,14.0,71,0.00,,,0.58,,2013-09-22 17:12:00,
2013-09-22 13:23:00,59.0,50.0,29.70,WNW,301,4.0,17.0,72,0.00,,,0.58,,2013-09-22 17:23:00,
2013-09-22 13:43:00,59.0,50.0,29.66,WSW,252,5.0,11.0,72,0.00,,,0.57,,2013-09-22 17:43:00,
2013-09-22 13:53:00,60.0,50.0,29.70,WSW,246,6.0,9.0,70,0.00,,,0.58,,2013-09-22 17:53:00,
2013-09-22 14:13:00,60.0,51.0,29.70,NNW,343,6.0,10.0,71,0.00,,,0.58,,2013-09-22 18:13:00,
2013-09-22 14:22:00,61.0,51.0,29.70,West,279,5.0,15.0,70,0.00,,,0.58,,2013-09-22 18:22:00,
2013-09-22 14:42:00,60.0,50.0,29.70,NNW,332,7.0,17.0,69,0.00,,,0.58,,2013-09-22 18:42:00,
2013-09-22 14:52:00,60.0,51.0,29.70,WSW,252,4.0,13.0,71,0.00,,,0.58,,2013-09-22 18:52:00,
2013-09-22 15:11:00,59.0,50.0,29.70,WNW,287,6.0,12.0,73,0.00,,,0.58,,2013-09-22 19:11:00,
2013-09-22 15:22:00,58.0,50.0,29.70,North,357,7.0,13.0,76,0.00,,,0.58,,2013-09-22 19:22:00,
2013-09-22 15:53:00,58.0,51.0,29.70,SW,218,5.0,12.0,78,0.00,,,0.58,,2013-09-22 19:53:00,
2013-09-22 16:12:00,58.0,51.0,29.71,West,259,5.0,9.0,78,0.00,,,0.58,,2013-09-22 20:12:00,
2013-09-22 16:22:00,58.0,51.0,29.71,SSW,193,5.0,13.0,78,0.00,,,0.58,,2013-09-22 20:22:00,
2013-09-22 16:42:00,57.0,50.0,29.69,NW,305,5.0,11.0,78,0.00,,,0.57,,2013-09-22 20:42:00,
2013-09-22 16:52:00,55.0,50.0,29.73,WNW,293,5.0,16.0,83,0.00,,,0.58,,2013-09-22 20:52:00,
2013-09-22 17:12:00,54.0,49.0,29.74,NNW,336,5.0,12.0,84,0.00,,,0.58,,2013-09-22 21:12:00,
2013-09-22 17:23:00,54.0,50.0,29.74,West,260,4.0,9.0,85,0.00,,,0.58,,2013-09-22 21:23:00,
2013-09-22 17:45:00,54.0,49.0,29.75,ENE,57,6.0,9.0,84,0.00,,,0.58,,2013-09-22 21:45:00,
2013-09-22 17:54:00,54.0,49.0,29.75,NW,325,5.0,9.0,83,0.00,,,0.58,,2013-09-22 21:54:00,
2013-09-22 18:14:00,54.0,49.0,29.75,SW,236,3.0,9.0,82,0.00,,,0.58,,2013-09-22 22:14:00,
2013-09-22 18:24:00,54.0,49.0,29.76,SW,236,4.0,9.0,83,0.00,,,0.58,,2013-09-22 22:24:00,
2013-09-22 18:54:00,52.0,48.0,29.77,NNW,341,4.0,11.0,85,0.00,,,0.58,,2013-09-22 22:54:00,
2013-09-22 19:12:00,51.0,47.0,29.78,WNW,296,2.0,8.0,87,0.00,,,0.58,,2013-09-22 23:12:00,
2013-09-22 19:22:00,51.0,47.0,29.78,WNW,284,3.0,7.0,87,0.00,,,0.58,,2013-09-22 23:22:00,
2013-09-22 19:43:00,51.0,48.0,29.79,NW,313,1.0,5.0,88,0.00,,,0.58,,2013-09-22 23:43:00,
2013-09-22 19:52:00,50.0,47.0,29.77,West,268,2.0,7.0,88,0.00,,,0.57,,2013-09-22 23:52:00,
2013-09-22 20:12:00,51.0,48.0,29.80,NNE,19,2.0,6.0,89,0.00,,,0.58,,2013-09-23 00:12:00,
2013-09-22 20:23:00,51.0,47.0,29.81,NNW,332,3.0,7.0,86,0.00,,,0.58,,2013-09-23 00:23:00,
2013-09-22 20:42:00,51.0,47.0,29.81,NW,305,3.0,6.0,85,0.00,,,0.58,,2013-09-23 00:42:00,
2013-09-22 20:53:00,51.0,46.0,29.81,NNW,339,3.0,7.0,84,0.00,,,0.58,,2013-09-23 00:53:00,
2013-09-22 21:12:00,51.0,46.0,29.82,WNW,302,3.0,7.0,84,0.00,,,0.58,,2013-09-23 01:12:00,
2013-09-22 21:22:00,50.0,46.0,29.83,NNE,12,3.0,7.0,85,0.00,,,0.58,,2013-09-23 01:22:00,
2013-09-22 21:43:00,50.0,44.0,29.83,NNW,338,5.0,10.0,81,0.00,,,0.58,,2013-09-23 01:43:00,
2013-09-22 21:52:00,49.0,43.0,29.84,NW,306,4.0,9.0,81,0.00,,,0.58,,2013-09-23 01:52:00,
2013-09-22 22:11:00,48.0,43.0,29.84,NNE,19,4.0,9.0,82,0.00,,,0.58,,2013-09-23 02:11:00,
2013-09-22 22:22:00,48.0,43.0,29.85,WNW,284,2.0,7.0,83,0.00,,,0.58,,2013-09-23 02:22:00,
2013-09-22 22:42:00,48.0,43.0,29.85,NNW,347,3.0,10.0,83,0.00,,,0.58,,2013-09-23 02:42:00,
2013-09-22 22:52:00,48.0,43.0,29.85,NNW,336,3.0,7.0,84,0.00,,,0.58,,2013-09-23 02:52:00,
2013-09-22 23:12:00,47.0,43.0,29.83,NW,305,1.0,7.0,85,0.00,,,0.57,,2013-09-23 03:12:00,
2013-09-22 23:23:00,47.0,43.0,29.85,NNW,336,2.0,9.0,85,0.00,,,0.58,,2013-09-23 03:23:00,
2013-09-22 23:44:00,47.0,43.0,29.86,NW,312,1.0,7.0,86,0.00,,,0.58,,2013-09-23 03:44:00,
2013-09-22 23:54:00,47.0,43.0,29.86,NW,305,2.0,6.0,87,0.00,,,0.58,,2013-09-23 03:54:00,